createdAt,value
2022-12-19T00:01:34.946Z,-0.71
2022-12-19T00:04:08.072Z,-0.94
2022-12-19T00:06:36.548Z,-0.72
2022-12-19T00:09:04.373Z,-0.73
2022-12-19T00:11:31.654Z,-1.71
2022-12-19T00:13:58.858Z,-0.90
2022-12-19T00:16:28.926Z,-2.91
2022-12-19T00:18:57.786Z,-1.24
2022-12-19T00:21:28.196Z,-0.90
2022-12-19T00:23:55.072Z,-0.83
2022-12-19T00:26:24.059Z,-0.79
2022-12-19T00:28:52.608Z,-0.74
2022-12-19T00:31:20.929Z,-0.76
2022-12-19T00:33:48.174Z,-0.75
2022-12-19T00:36:16.885Z,-0.72
2022-12-19T00:38:51.418Z,-0.73
2022-12-19T00:41:20.415Z,-0.74
2022-12-19T00:43:47.426Z,-0.71
2022-12-19T00:46:15.665Z,-1.11
2022-12-19T00:48:43.117Z,-1.00
2022-12-19T00:51:12.112Z,-0.80
2022-12-19T00:53:38.684Z,-0.77
2022-12-19T00:56:10.065Z,-0.79
2022-12-19T00:58:36.664Z,-0.72
2022-12-19T01:01:06.177Z,-0.74
2022-12-19T01:03:32.894Z,-0.75
2022-12-19T01:05:59.579Z,-0.91
2022-12-19T01:08:26.735Z,-0.80
2022-12-19T01:10:54.177Z,-1.75
2022-12-19T01:13:24.589Z,-2.15
2022-12-19T01:15:51.253Z,-0.94
2022-12-19T01:18:17.838Z,-0.92
2022-12-19T01:20:48.433Z,-0.81
2022-12-19T01:23:16.477Z,-0.80
2022-12-19T01:25:48.067Z,-1.34
2022-12-19T01:28:15.579Z,-0.88
2022-12-19T01:30:43.937Z,-1.77
2022-12-19T01:33:15.218Z,-1.00
2022-12-19T01:35:42.521Z,-0.84
2022-12-19T01:38:13.210Z,-1.15
2022-12-19T01:40:39.910Z,-1.03
2022-12-19T01:43:13.650Z,-0.83
2022-12-19T01:45:45.612Z,-0.83
2022-12-19T01:48:18.658Z,-0.79
2022-12-19T01:51:00.844Z,-0.79
2022-12-19T01:53:34.716Z,-1.05
2022-12-19T01:56:08.397Z,-1.13
2022-12-19T01:58:36.504Z,-1.15
2022-12-19T02:01:03.118Z,-0.90
2022-12-19T02:03:33.455Z,-0.84
2022-12-19T02:06:01.815Z,-0.83
2022-12-19T02:08:28.936Z,-0.82
2022-12-19T02:10:57.437Z,-0.80
2022-12-19T02:13:24.397Z,-0.81
2022-12-19T02:15:59.088Z,-0.80
2022-12-19T02:18:39.007Z,-1.31
2022-12-19T02:21:16.440Z,-0.88
2022-12-19T02:24:19.444Z,-0.83
2022-12-19T02:27:05.786Z,-0.75
2022-12-19T02:29:59.900Z,-1.85
2022-12-19T02:32:33.953Z,-3.11
2022-12-19T02:35:09.758Z,-1.12
2022-12-19T02:37:47.847Z,-1.57
2022-12-19T02:40:21.098Z,-1.41
2022-12-19T02:42:51.845Z,-1.91
2022-12-19T02:45:28.833Z,-0.93
2022-12-19T02:47:58.663Z,-0.87
2022-12-19T02:50:36.569Z,-0.88
2022-12-19T02:53:03.157Z,-0.84
2022-12-19T02:55:36.350Z,-0.78
2022-12-19T02:58:21.619Z,-0.85
2022-12-19T03:00:57.856Z,-0.82
2022-12-19T03:03:38.085Z,-0.83
2022-12-19T03:06:13.988Z,-0.83
2022-12-19T03:08:47.603Z,-0.83
2022-12-19T03:11:15.491Z,-0.79
2022-12-19T03:13:48.195Z,-0.80
2022-12-19T03:16:14.930Z,-0.80
2022-12-19T03:18:43.344Z,-0.81
2022-12-19T03:21:16.428Z,-0.80
2022-12-19T03:23:44.594Z,-0.81
2022-12-19T03:26:16.563Z,-0.80
2022-12-19T03:28:48.978Z,-0.80
2022-12-19T03:31:17.707Z,-0.77
2022-12-19T03:33:47.768Z,-0.75
2022-12-19T03:36:19.881Z,-0.78
2022-12-19T03:38:48.666Z,-0.83
2022-12-19T03:41:37.655Z,-0.72
2022-12-19T03:44:06.683Z,-0.95
2022-12-19T03:46:41.397Z,-0.81
2022-12-19T03:49:09.489Z,-0.81
2022-12-19T03:51:59.652Z,-0.87
2022-12-19T03:54:30.029Z,-0.81
2022-12-19T03:57:02.024Z,-0.86
2022-12-19T03:59:34.085Z,-0.81
2022-12-19T04:02:02.808Z,-0.81
2022-12-19T04:04:35.980Z,-0.80
2022-12-19T04:07:04.022Z,-0.79
2022-12-19T04:09:32.159Z,-2.73
2022-12-19T04:12:03.218Z,-1.32
2022-12-19T04:14:31.886Z,-2.22
2022-12-19T04:17:08.625Z,-1.22
2022-12-19T04:19:43.663Z,-1.29
2022-12-19T04:22:14.819Z,-0.88
2022-12-19T04:24:44.290Z,-0.86
2022-12-19T04:27:12.496Z,-0.85
2022-12-19T04:29:40.022Z,-1.70
2022-12-19T04:32:08.381Z,-1.29
2022-12-19T04:34:41.392Z,-0.92
2022-12-19T04:37:09.819Z,-0.90
2022-12-19T04:39:36.433Z,-0.86
2022-12-19T04:42:02.986Z,-2.59
2022-12-19T04:44:29.666Z,-1.85
2022-12-19T04:46:56.280Z,-2.55
2022-12-19T04:49:22.941Z,-1.48
2022-12-19T04:51:52.188Z,-0.99
2022-12-19T04:54:18.970Z,-0.94
2022-12-19T04:56:45.546Z,-0.90
2022-12-19T04:59:12.163Z,-0.88
2022-12-19T05:01:38.862Z,-0.87
2022-12-19T05:04:05.544Z,-1.64
2022-12-19T05:06:32.442Z,-1.81
2022-12-19T05:09:00.358Z,-2.74
2022-12-19T05:11:26.968Z,-1.16
2022-12-19T05:13:53.553Z,-1.31
2022-12-19T05:16:20.174Z,-0.96
2022-12-19T05:18:46.989Z,-0.97
2022-12-19T05:21:13.719Z,-0.91
2022-12-19T05:23:40.458Z,-0.89
2022-12-19T05:26:08.894Z,-0.88
2022-12-19T05:28:35.548Z,-1.49
2022-12-19T05:31:04.051Z,-1.42
2022-12-19T05:33:30.659Z,-0.87
2022-12-19T05:35:57.253Z,-0.80
2022-12-19T05:38:23.856Z,-2.16
2022-12-19T05:40:50.453Z,-0.89
2022-12-19T05:43:18.379Z,-0.88
2022-12-19T05:45:44.968Z,-0.89
2022-12-19T05:48:11.614Z,-0.80
2022-12-19T05:50:38.167Z,-1.08
2022-12-19T05:53:04.804Z,-0.78
2022-12-19T05:55:31.602Z,-1.41
2022-12-19T05:57:58.151Z,-2.00
2022-12-19T06:00:26.124Z,-1.18
2022-12-19T06:02:52.698Z,-0.88
2022-12-19T06:05:19.378Z,-1.03
2022-12-19T06:07:46.539Z,-0.92
2022-12-19T06:10:13.064Z,-0.86
2022-12-19T06:12:39.991Z,-1.17
2022-12-19T06:15:07.498Z,-1.82
2022-12-19T06:17:35.427Z,-1.18
2022-12-19T06:20:01.971Z,-0.93
2022-12-19T06:22:28.510Z,-0.86
2022-12-19T06:24:55.051Z,-1.27
2022-12-19T06:27:21.585Z,-0.97
2022-12-19T06:29:48.122Z,-1.04
2022-12-19T06:32:14.691Z,-0.88
2022-12-19T06:37:29.133Z,-1.08
2022-12-19T06:39:55.668Z,-0.81
2022-12-19T06:42:25.520Z,-0.78
2022-12-19T06:44:53.688Z,-0.78
2022-12-19T06:47:22.388Z,-0.97
2022-12-19T06:49:50.363Z,-0.81
2022-12-19T06:52:17.705Z,-0.77
2022-12-19T06:54:44.261Z,-0.76
2022-12-19T06:57:10.814Z,-2.35
2022-12-19T06:59:37.389Z,-2.10
2022-12-19T07:02:13.242Z,-1.75
2022-12-19T07:04:45.939Z,-0.96
2022-12-19T07:07:13.954Z,-0.86
2022-12-19T07:09:40.877Z,-0.81
2022-12-19T07:12:07.889Z,-0.99
2022-12-19T07:14:34.644Z,-0.94
2022-12-19T07:17:02.760Z,-0.83
2022-12-19T07:19:32.818Z,-0.80
2022-12-19T07:22:02.176Z,-0.77
2022-12-19T07:24:30.601Z,-0.75
2022-12-19T07:26:57.922Z,-1.36
2022-12-19T07:29:24.571Z,-0.88
2022-12-19T07:31:51.265Z,-0.77
2022-12-19T07:34:17.919Z,-0.74
2022-12-19T07:36:44.542Z,-0.72
2022-12-19T07:39:11.166Z,-1.25
2022-12-19T07:41:39.349Z,-0.80
2022-12-19T07:44:06.816Z,-0.75
2022-12-19T07:46:33.431Z,-0.81
2022-12-19T07:49:00.217Z,-0.72
2022-12-19T07:51:27.334Z,-0.75
2022-12-19T07:53:53.923Z,-0.71
2022-12-19T07:56:20.544Z,-0.69
2022-12-19T07:58:48.477Z,-1.21
2022-12-19T08:01:15.173Z,-1.24
2022-12-19T08:03:41.758Z,-0.84
2022-12-19T08:06:09.238Z,-1.34
2022-12-19T08:08:37.592Z,-0.72
2022-12-19T08:11:09.792Z,-1.17
2022-12-19T08:13:40.813Z,-0.81
2022-12-19T08:16:12.758Z,-0.76
2022-12-19T08:18:39.390Z,-0.79
2022-12-19T08:21:07.611Z,-0.74
2022-12-19T08:23:34.158Z,-0.85
2022-12-19T08:26:01.577Z,-0.79
2022-12-19T08:28:28.191Z,-0.70
2022-12-19T08:30:54.868Z,-0.69
2022-12-19T08:33:23.053Z,-0.69
2022-12-19T08:35:49.634Z,-0.65
2022-12-19T08:38:16.493Z,-0.66
2022-12-19T08:40:47.404Z,-0.81
2022-12-19T08:43:14.229Z,-0.85
2022-12-19T08:45:40.790Z,-0.78
2022-12-19T08:48:07.760Z,-0.66
2022-12-19T08:50:35.649Z,-0.69
2022-12-19T08:53:02.253Z,-0.68
2022-12-19T08:55:28.790Z,-0.65
2022-12-19T08:57:56.479Z,-0.61
2022-12-19T09:00:23.121Z,-0.60
2022-12-19T09:02:51.693Z,-0.61
2022-12-19T09:05:57.669Z,-0.58
2022-12-19T09:08:06.343Z,-0.50
2022-12-19T09:10:36.081Z,-0.61
2022-12-19T09:13:02.702Z,-0.53
2022-12-19T09:15:30.361Z,-0.61
2022-12-19T09:17:56.970Z,-0.56
2022-12-19T09:20:23.885Z,-0.61
2022-12-19T09:22:50.510Z,-0.58
2022-12-19T09:25:18.694Z,-0.58
2022-12-19T09:28:25.187Z,-0.58
2022-12-19T09:30:31.879Z,-0.57
2022-12-19T09:32:59.767Z,-0.54
2022-12-19T09:35:30.198Z,-0.48
2022-12-19T09:38:00.276Z,-0.57
2022-12-19T09:40:47.960Z,-0.56
2022-12-19T09:43:24.241Z,-0.48
2022-12-19T09:46:01.280Z,-0.53
2022-12-19T09:48:27.878Z,-0.37
2022-12-19T09:51:09.585Z,-0.48
2022-12-19T09:53:54.557Z,-0.46
2022-12-19T09:56:26.628Z,-0.49
2022-12-19T09:58:58.285Z,-0.43
2022-12-19T10:01:30.809Z,-0.18
2022-12-19T10:04:04.430Z,-0.46
2022-12-19T10:07:10.624Z,-0.44
2022-12-19T10:10:16.522Z,-0.44
2022-12-19T10:12:45.128Z,-0.45
2022-12-19T10:15:22.646Z,-0.39
2022-12-19T10:18:12.715Z,1.30
2022-12-19T10:20:44.939Z,2.22
2022-12-19T10:23:29.137Z,2.57
2022-12-19T10:25:59.861Z,0.60
2022-12-19T10:28:51.236Z,0.02
2022-12-19T10:31:22.812Z,-0.07
2022-12-19T10:33:55.846Z,0.31
2022-12-19T10:36:41.856Z,-0.11
2022-12-19T10:39:20.734Z,0.15
2022-12-19T10:41:54.757Z,-0.10
2022-12-19T10:44:25.733Z,-0.18
2022-12-19T10:46:53.157Z,0.15
2022-12-19T10:49:22.074Z,-0.10
2022-12-19T10:52:01.412Z,-0.15
2022-12-19T10:54:38.488Z,-0.16
2022-12-19T10:57:19.759Z,-0.12
2022-12-19T10:59:57.154Z,-0.12
2022-12-19T11:02:34.253Z,1.73
2022-12-19T11:05:01.719Z,2.32
2022-12-19T11:07:28.797Z,1.36
2022-12-19T11:10:30.768Z,0.32
2022-12-19T11:16:36.471Z,0.08
2022-12-19T11:20:27.446Z,-0.05
2022-12-19T11:26:10.610Z,-0.09
2022-12-19T11:29:26.396Z,-0.01
2022-12-19T11:29:33.110Z,1.36
2022-12-19T11:30:34.389Z,1.31
2022-12-19T11:33:15.725Z,0.18
2022-12-19T11:35:48.689Z,0.03
2022-12-19T11:38:18.502Z,-0.05
2022-12-19T11:40:49.692Z,-0.02
2022-12-19T11:43:43.870Z,0.01
2022-12-19T11:46:21.807Z,-0.01
2022-12-19T11:48:53.668Z,0.02
2022-12-19T11:51:27.017Z,1.36
2022-12-19T11:54:01.553Z,0.50
2022-12-19T11:56:29.228Z,0.22
2022-12-19T11:58:59.577Z,1.94
2022-12-19T12:01:45.521Z,1.29
2022-12-19T12:04:43.171Z,1.39
2022-12-19T12:07:36.756Z,1.62
2022-12-19T12:12:42.644Z,0.54
2022-12-19T12:20:21.919Z,1.37
2022-12-19T12:30:59.261Z,0.55
2022-12-19T12:31:16.921Z,0.42
2022-12-19T12:31:20.596Z,1.37
2022-12-19T12:31:39.011Z,1.21
2022-12-19T12:31:43.410Z,0.36
2022-12-19T12:31:47.568Z,0.76
2022-12-19T12:35:52.126Z,1.38
2022-12-19T12:39:36.084Z,0.90
2022-12-19T12:42:11.169Z,1.61
2022-12-19T12:44:45.616Z,2.03
2022-12-19T12:47:17.521Z,2.26
2022-12-19T12:49:48.354Z,2.03
2022-12-19T12:52:18.206Z,1.23
2022-12-19T12:54:49.435Z,0.75
2022-12-19T12:57:19.832Z,0.66
2022-12-19T12:59:48.377Z,0.55
2022-12-19T13:02:18.336Z,0.33
2022-12-19T13:04:56.891Z,0.41
2022-12-19T13:07:32.600Z,0.37
2022-12-19T13:10:25.199Z,0.73
2022-12-19T13:12:59.925Z,0.30
2022-12-19T13:15:39.441Z,0.34
2022-12-19T13:18:29.648Z,0.34
2022-12-19T13:20:56.660Z,0.54
2022-12-19T13:23:34.062Z,0.52
2022-12-19T13:26:02.182Z,0.38
2022-12-19T13:28:41.971Z,0.47
2022-12-19T13:31:22.960Z,0.85
2022-12-19T13:34:11.817Z,0.48
2022-12-19T13:39:48.149Z,0.38
2022-12-19T13:39:55.431Z,0.35
2022-12-19T13:42:52.605Z,0.39
2022-12-19T13:45:34.051Z,0.46
2022-12-19T13:48:04.607Z,0.53
2022-12-19T13:50:35.789Z,0.44
2022-12-19T13:53:02.847Z,0.34
2022-12-19T13:55:29.877Z,0.36
2022-12-19T13:57:58.034Z,0.56
2022-12-19T14:00:33.879Z,0.50
2022-12-19T14:03:01.465Z,0.44
2022-12-19T14:05:36.053Z,0.61
2022-12-19T14:08:20.310Z,0.71
2022-12-19T14:11:45.317Z,0.48
2022-12-19T14:14:10.107Z,0.39
2022-12-19T14:16:44.692Z,0.39
2022-12-19T14:19:20.329Z,0.71
2022-12-19T14:22:05.794Z,0.68
2022-12-19T14:24:33.460Z,0.45
2022-12-19T14:28:19.051Z,0.69
2022-12-19T14:30:27.881Z,0.51
2022-12-19T14:33:43.502Z,0.45
2022-12-19T14:36:07.847Z,0.59
2022-12-19T14:39:22.536Z,0.49
2022-12-19T14:41:40.774Z,0.43
2022-12-19T14:52:08.827Z,0.42
2022-12-19T14:53:34.138Z,0.48
2022-12-19T14:54:21.092Z,0.51
2022-12-19T14:54:37.068Z,0.54
2022-12-19T14:56:16.463Z,0.47
2022-12-19T14:58:53.971Z,0.44
2022-12-19T15:01:24.135Z,0.51
2022-12-19T15:04:52.642Z,0.60
2022-12-19T15:07:07.542Z,0.48
2022-12-19T15:11:03.270Z,0.48
2022-12-19T15:14:57.024Z,0.46
2022-12-19T15:15:45.320Z,0.50
2022-12-19T15:18:24.046Z,0.49
2022-12-19T15:20:53.093Z,0.50
2022-12-19T15:23:22.554Z,0.51
2022-12-19T15:26:06.912Z,0.52
2022-12-19T15:28:40.656Z,0.52
2022-12-19T15:31:20.090Z,0.51
2022-12-19T15:34:23.174Z,0.51
2022-12-19T15:36:34.617Z,0.54
2022-12-19T15:39:01.294Z,0.53
2022-12-19T15:41:27.883Z,0.53
2022-12-19T15:44:04.020Z,0.56
2022-12-19T15:46:32.571Z,0.56
2022-12-19T15:48:59.306Z,0.56
2022-12-19T15:51:25.870Z,0.56
2022-12-19T15:53:56.970Z,0.54
2022-12-19T15:56:35.191Z,0.55
2022-12-19T15:59:03.852Z,0.56
2022-12-19T16:01:33.004Z,0.56
2022-12-19T16:04:01.345Z,0.60
2022-12-19T16:06:28.651Z,0.58
2022-12-19T16:08:56.654Z,0.61
2022-12-19T16:11:24.422Z,0.35
2022-12-19T16:13:54.446Z,0.51
2022-12-19T16:16:21.449Z,0.55
2022-12-19T16:18:48.153Z,0.59
2022-12-19T16:21:20.163Z,0.60
2022-12-19T16:23:47.145Z,0.61
2022-12-19T16:26:33.323Z,0.63
2022-12-19T16:29:00.581Z,0.64
2022-12-19T16:31:27.740Z,0.61
2022-12-19T16:33:55.132Z,0.63
2022-12-19T16:36:21.737Z,0.67
2022-12-19T16:38:48.435Z,0.01
2022-12-19T16:41:18.088Z,0.05
2022-12-19T16:43:45.934Z,-1.06
2022-12-19T16:46:17.271Z,0.10
2022-12-19T16:48:43.964Z,0.12
2022-12-19T16:51:18.603Z,0.45
2022-12-19T16:53:45.487Z,0.54
2022-12-19T16:56:23.158Z,-0.16
2022-12-19T16:58:51.492Z,0.48
2022-12-19T17:01:18.756Z,0.58
2022-12-19T17:03:45.770Z,0.62
2022-12-19T17:06:14.189Z,0.61
2022-12-19T17:08:40.911Z,0.64
2022-12-19T17:11:14.719Z,0.63
2022-12-19T17:13:41.501Z,0.14
2022-12-19T17:16:09.640Z,0.20
2022-12-19T17:18:40.487Z,0.54
2022-12-19T17:21:07.411Z,0.52
2022-12-19T17:23:33.955Z,-1.23
2022-12-19T17:26:00.993Z,0.07
2022-12-19T17:28:28.748Z,0.47
2022-12-19T17:30:58.847Z,0.55
2022-12-19T17:33:33.261Z,0.60
2022-12-19T17:36:00.379Z,0.62
2022-12-19T17:38:27.412Z,0.62
2022-12-19T17:40:54.016Z,0.64
2022-12-19T17:43:20.543Z,0.52
2022-12-19T17:45:47.300Z,0.60
2022-12-19T17:48:23.023Z,0.63
2022-12-19T17:50:52.397Z,0.63
2022-12-19T17:53:19.240Z,0.68
2022-12-19T17:55:45.939Z,0.69
2022-12-19T17:58:13.098Z,0.70
2022-12-19T18:00:40.730Z,0.05
2022-12-19T18:03:17.150Z,0.37
2022-12-19T18:05:44.104Z,0.59
2022-12-19T18:08:23.058Z,-0.23
2022-12-19T18:10:51.597Z,0.45
2022-12-19T18:13:18.422Z,0.24
2022-12-19T18:15:45.176Z,0.52
2022-12-19T18:18:14.112Z,0.62
2022-12-19T18:20:41.842Z,0.66
2022-12-19T18:23:15.336Z,0.64
2022-12-19T18:25:43.434Z,0.66
2022-12-19T18:28:09.989Z,0.70
2022-12-19T18:30:37.481Z,0.69
2022-12-19T18:33:05.683Z,0.70
2022-12-19T18:35:35.763Z,0.72
2022-12-19T18:38:05.426Z,0.21
2022-12-19T18:40:32.173Z,0.68
2022-12-19T18:43:00.742Z,0.40
2022-12-19T18:45:35.015Z,0.44
2022-12-19T18:48:03.297Z,-0.05
2022-12-19T18:50:29.936Z,-0.61
2022-12-19T18:52:57.189Z,0.26
2022-12-19T18:55:25.911Z,-1.03
2022-12-19T18:57:52.555Z,-0.57
2022-12-19T19:00:23.041Z,-0.98
2022-12-19T19:02:53.818Z,-0.02
2022-12-19T19:05:23.252Z,0.37
2022-12-19T19:07:50.189Z,0.44
2022-12-19T19:10:20.839Z,0.50
2022-12-19T19:12:49.120Z,0.63
2022-12-19T19:15:16.362Z,0.67
2022-12-19T19:17:47.647Z,0.70
2022-12-19T19:20:14.243Z,0.54
2022-12-19T19:22:41.565Z,0.72
2022-12-19T19:25:09.090Z,0.68
2022-12-19T19:27:36.251Z,0.58
2022-12-19T19:30:03.598Z,-0.32
2022-12-19T19:32:31.611Z,0.31
2022-12-19T19:35:00.635Z,-0.03
2022-12-19T19:37:28.031Z,0.43
2022-12-19T19:39:54.635Z,0.61
2022-12-19T19:42:21.210Z,0.00
2022-12-19T19:44:47.768Z,0.47
2022-12-19T19:47:14.629Z,0.07
2022-12-19T19:49:41.317Z,0.48
2022-12-19T19:52:09.292Z,0.58
2022-12-19T19:54:35.858Z,0.24
2022-12-19T19:57:02.455Z,0.59
2022-12-19T19:59:30.658Z,0.64
2022-12-19T20:01:57.361Z,0.28
2022-12-19T20:04:24.046Z,0.49
2022-12-19T20:06:50.689Z,0.61
2022-12-19T20:09:18.647Z,0.13
2022-12-19T20:11:45.287Z,0.42
2022-12-19T20:14:11.882Z,-0.02
2022-12-19T20:16:38.514Z,0.34
2022-12-19T20:19:05.152Z,-0.96
2022-12-19T20:21:33.249Z,-0.68
2022-12-19T20:23:59.867Z,0.06
2022-12-19T20:26:27.898Z,0.36
2022-12-19T20:28:54.495Z,-0.37
2022-12-19T20:31:23.786Z,0.50
2022-12-19T20:33:53.010Z,0.43
2022-12-19T20:36:19.705Z,0.24
2022-12-19T20:38:46.602Z,0.51
2022-12-19T20:41:13.261Z,0.62
2022-12-19T20:43:41.618Z,-0.08
2022-12-19T20:46:10.340Z,-1.29
2022-12-19T20:48:37.868Z,-2.51
2022-12-19T20:51:05.551Z,0.13
2022-12-19T20:53:33.390Z,0.54
2022-12-19T20:56:03.175Z,-0.66
2022-12-19T20:58:31.851Z,-1.14
2022-12-19T21:01:06.776Z,0.44
2022-12-19T21:03:34.008Z,0.53
2022-12-19T21:06:00.903Z,0.89
2022-12-19T21:08:28.148Z,0.83
2022-12-19T21:10:54.739Z,0.82
2022-12-19T21:13:22.760Z,0.94
2022-12-19T21:15:51.943Z,0.08
2022-12-19T21:18:19.994Z,0.37
2022-12-19T21:20:46.882Z,0.84
2022-12-19T21:23:13.560Z,-1.00
2022-12-19T21:25:40.136Z,0.54
2022-12-19T21:28:06.718Z,0.86
2022-12-19T21:30:33.292Z,0.51
2022-12-19T21:32:59.853Z,0.13
2022-12-19T21:35:27.863Z,0.93
2022-12-19T21:37:54.383Z,0.96
2022-12-19T21:40:21.498Z,1.00
2022-12-19T21:42:48.332Z,1.09
2022-12-19T21:45:15.339Z,1.02
2022-12-19T21:47:42.925Z,1.20
2022-12-19T21:50:11.429Z,-0.53
2022-12-19T21:52:39.994Z,0.65
2022-12-19T21:55:08.280Z,1.00
2022-12-19T21:57:38.452Z,1.01
2022-12-19T22:00:06.936Z,1.14
2022-12-19T22:02:33.573Z,1.20
2022-12-19T22:05:00.234Z,1.25
2022-12-19T22:07:26.821Z,0.06
2022-12-19T22:09:55.225Z,0.67
2022-12-19T22:12:21.899Z,-1.49
2022-12-19T22:14:48.577Z,0.03
2022-12-19T22:17:15.448Z,0.61
2022-12-19T22:19:42.024Z,0.96
2022-12-19T22:22:08.609Z,0.04
2022-12-19T22:24:35.387Z,0.27
2022-12-19T22:27:03.391Z,0.93
2022-12-19T22:29:30.101Z,1.00
2022-12-19T22:31:56.759Z,1.21
2022-12-19T22:34:23.440Z,1.23
2022-12-19T22:36:50.078Z,1.22
2022-12-19T22:39:18.870Z,1.36
2022-12-19T22:41:45.775Z,1.28
2022-12-19T22:44:16.572Z,1.40
2022-12-19T22:46:43.398Z,1.41
2022-12-19T22:49:12.152Z,0.01
2022-12-19T22:51:38.793Z,1.15
2022-12-19T22:54:06.098Z,0.25
2022-12-19T22:56:33.788Z,0.84
2022-12-19T22:59:03.759Z,0.59
2022-12-19T23:01:33.407Z,0.46
2022-12-19T23:04:01.083Z,1.25
2022-12-19T23:06:31.055Z,1.37
2022-12-19T23:08:57.909Z,1.34
2022-12-19T23:11:26.987Z,1.41
2022-12-19T23:13:53.824Z,1.36
2022-12-19T23:16:20.493Z,1.43
2022-12-19T23:18:48.509Z,1.20
2022-12-19T23:21:17.796Z,0.53
2022-12-19T23:23:46.458Z,1.29
2022-12-19T23:26:17.102Z,1.34
2022-12-19T23:28:49.911Z,1.44
2022-12-19T23:31:16.797Z,1.46
2022-12-19T23:33:43.604Z,1.53
2022-12-19T23:36:11.710Z,1.57
2022-12-19T23:38:38.292Z,1.49
2022-12-19T23:41:07.717Z,1.49
2022-12-19T23:43:35.558Z,1.49
2022-12-19T23:46:05.189Z,1.18
2022-12-19T23:48:31.815Z,1.36
2022-12-19T23:50:59.258Z,1.45
2022-12-19T23:53:27.767Z,1.48
2022-12-19T23:55:54.659Z,1.50
2022-12-19T23:58:24.704Z,1.50
